Time;durP1;ratioP1;P1;durP2;ratioP2;P2;SDS_P1;SDS_P2;PMS_P1;PMS_P2;Temp;Humidity;BMP_temperature;BMP_pressure;BME280_temperature;BME280_humidity;BME280_pressure;Samples;Min_cycle;Max_cycle;Signal;HPM_P1;HPM_P2
2023/12/30 00:02:25;;;;;;;5.45;2.65;;;8.90;99.90;;;;;;5010589;28;21084;-45
2023/12/30 00:04:52;;;;;;;3.85;2.38;;;8.90;99.90;;;;;;5015694;28;20115;-50
2023/12/30 00:07:19;;;;;;;3.55;2.10;;;8.90;99.90;;;;;;5012004;28;20053;-46
2023/12/30 00:09:46;;;;;;;5.07;2.30;;;8.90;99.90;;;;;;5013941;28;20427;-50
2023/12/30 00:12:13;;;;;;;3.92;2.10;;;9.00;99.90;;;;;;5016691;28;20092;-46
2023/12/30 00:14:40;;;;;;;5.85;2.25;;;9.10;99.90;;;;;;5013033;28;20423;-47
2023/12/30 00:17:07;;;;;;;3.33;2.13;;;9.20;99.90;;;;;;5010048;28;20071;-51
2023/12/30 00:19:36;;;;;;;5.63;2.30;;;9.20;99.90;;;;;;5016562;28;20096;-47
2023/12/30 00:22:03;;;;;;;3.72;2.20;;;9.20;99.90;;;;;;5011731;28;20440;-49
2023/12/30 00:24:30;;;;;;;4.78;2.03;;;9.20;99.90;;;;;;5010553;28;20050;-49
2023/12/30 00:26:57;;;;;;;5.97;2.00;;;9.30;99.90;;;;;;5013337;28;20073;-47
2023/12/30 00:29:24;;;;;;;6.85;2.20;;;9.20;99.90;;;;;;5015557;28;20117;-48
2023/12/30 00:31:51;;;;;;;5.63;2.20;;;9.20;99.90;;;;;;5016495;28;20050;-49
2023/12/30 00:34:18;;;;;;;3.53;2.03;;;9.20;99.90;;;;;;5014539;28;20100;-48
2023/12/30 00:36:46;;;;;;;3.28;2.10;;;9.20;99.90;;;;;;5014784;28;20053;-46
2023/12/30 00:39:13;;;;;;;5.07;2.10;;;9.20;99.90;;;;;;5015989;28;20041;-53
2023/12/30 00:41:40;;;;;;;3.95;1.90;;;9.20;99.90;;;;;;5013349;28;20042;-50
2023/12/30 00:44:07;;;;;;;4.47;2.40;;;9.10;99.90;;;;;;5008964;28;20034;-47
2023/12/30 00:46:34;;;;;;;3.75;2.25;;;9.10;99.90;;;;;;5040674;28;20049;-49
2023/12/30 00:49:01;;;;;;;5.05;2.75;;;9.10;99.90;;;;;;5015433;28;20410;-48
2023/12/30 00:51:28;;;;;;;5.05;2.30;;;9.00;99.90;;;;;;5010842;28;20046;-49
2023/12/30 00:53:55;;;;;;;4.40;2.63;;;9.00;99.90;;;;;;5017504;28;20473;-53
2023/12/30 00:56:22;;;;;;;5.25;3.00;;;8.90;99.90;;;;;;5014589;28;20555;-47
2023/12/30 00:58:49;;;;;;;5.38;2.38;;;8.90;99.90;;;;;;5027418;28;20053;-46
2023/12/30 01:01:16;;;;;;;5.45;2.45;;;8.80;99.90;;;;;;5013492;28;20265;-48
2023/12/30 01:03:43;;;;;;;5.03;2.75;;;8.80;99.90;;;;;;5024750;28;20531;-48
2023/12/30 01:06:10;;;;;;;5.47;2.90;;;8.70;99.90;;;;;;5017121;28;20045;-51
2023/12/30 01:08:37;;;;;;;5.55;3.05;;;8.60;99.90;;;;;;5018119;28;20521;-49
2023/12/30 01:11:05;;;;;;;3.83;2.55;;;8.60;99.90;;;;;;5012881;28;20038;-50
2023/12/30 01:13:32;;;;;;;8.13;2.58;;;8.60;99.90;;;;;;5011580;28;20132;-48
2023/12/30 01:16:03;;;;;;;5.75;2.53;;;8.50;99.90;;;;;;5014402;28;20049;-49
2023/12/30 01:18:30;;;;;;;5.50;3.00;;;8.50;99.90;;;;;;5009330;28;20058;-52
2023/12/30 01:20:57;;;;;;;4.88;2.65;;;8.50;99.90;;;;;;5011382;28;20046;-49
2023/12/30 01:23:24;;;;;;;4.00;2.40;;;8.50;99.90;;;;;;5010513;28;20232;-51
2023/12/30 01:25:51;;;;;;;4.13;2.53;;;8.50;99.90;;;;;;5013152;28;20096;-48
2023/12/30 01:28:19;;;;;;;5.53;2.58;;;8.40;99.90;;;;;;5013492;28;20114;-50
2023/12/30 01:30:46;;;;;;;6.15;2.78;;;8.40;99.90;;;;;;5014112;28;20073;-45
2023/12/30 01:33:12;;;;;;;5.78;2.42;;;8.30;99.90;;;;;;5014626;28;20095;-54
2023/12/30 01:35:40;;;;;;;5.85;2.80;;;8.30;99.90;;;;;;5012554;28;20049;-53
2023/12/30 01:38:07;;;;;;;4.18;2.53;;;8.30;99.90;;;;;;5007700;28;20042;-51
2023/12/30 01:40:34;;;;;;;5.70;2.75;;;8.30;99.90;;;;;;5011346;28;20507;-50
2023/12/30 01:43:02;;;;;;;6.38;2.58;;;8.40;99.90;;;;;;5010656;28;20034;-53
2023/12/30 01:45:30;;;;;;;4.90;2.95;;;8.30;99.90;;;;;;5015362;28;20045;-52
2023/12/30 01:47:58;;;;;;;4.57;2.50;;;8.30;99.90;;;;;;5012482;28;20076;-51
2023/12/30 01:50:26;;;;;;;3.80;2.45;;;8.30;99.90;;;;;;5012317;28;20100;-44
2023/12/30 01:52:53;;;;;;;5.47;2.88;;;8.30;99.90;;;;;;5008862;28;20530;-45
2023/12/30 01:55:20;;;;;;;4.05;2.38;;;8.30;99.90;;;;;;5012272;28;20046;-45
2023/12/30 01:57:47;;;;;;;7.40;2.65;;;8.20;99.90;;;;;;5013708;28;20153;-47
2023/12/30 02:00:19;;;;;;;6.10;3.08;;;8.30;99.90;;;;;;5017246;28;20053;-45
2023/12/30 02:02:48;;;;;;;5.22;2.65;;;8.20;99.90;;;;;;5013915;28;20049;-48
2023/12/30 02:05:16;;;;;;;4.13;2.47;;;8.30;99.90;;;;;;5014339;28;20494;-46
2023/12/30 02:07:47;;;;;;;4.32;2.65;;;8.30;99.90;;;;;;5010954;28;20057;-49
2023/12/30 02:10:14;;;;;;;4.63;2.53;;;8.30;99.90;;;;;;5011824;28;20049;-44
2023/12/30 02:12:42;;;;;;;6.65;3.20;;;8.30;99.90;;;;;;5011332;28;20503;-51
2023/12/30 02:15:25;;;;;;;4.68;2.55;;;8.30;99.90;;;;;;5006969;28;20054;-47
2023/12/30 02:17:56;;;;;;;3.65;2.22;;;8.40;99.90;;;;;;5039170;28;20045;-46
2023/12/30 02:20:23;;;;;;;5.95;3.00;;;8.50;99.90;;;;;;5011731;28;20902;-50
2023/12/30 02:22:50;;;;;;;5.35;2.58;;;8.50;99.90;;;;;;5014165;28;20147;-47
2023/12/30 02:25:17;;;;;;;5.13;2.58;;;8.50;99.90;;;;;;5011420;28;20046;-50
2023/12/30 02:27:45;;;;;;;5.15;2.38;;;8.50;99.90;;;;;;5037462;28;20046;-50
2023/12/30 02:30:13;;;;;;;5.22;2.33;;;8.50;99.90;;;;;;5013065;28;20528;-52
2023/12/30 02:32:40;;;;;;;5.05;2.30;;;8.50;99.90;;;;;;5016739;28;20136;-49
2023/12/30 02:35:08;;;;;;;5.03;2.40;;;8.50;99.90;;;;;;5008517;28;20537;-48
2023/12/30 02:37:34;;;;;;;4.32;2.35;;;8.50;99.90;;;;;;5016086;28;20544;-50
2023/12/30 02:40:02;;;;;;;7.05;2.50;;;8.60;99.90;;;;;;5014641;28;20046;-48
2023/12/30 02:42:29;;;;;;;5.15;2.30;;;8.60;99.90;;;;;;5008690;28;20053;-47
2023/12/30 02:44:57;;;;;;;5.15;2.60;;;8.60;99.90;;;;;;5012645;28;20068;-45
2023/12/30 02:47:24;;;;;;;5.43;2.50;;;8.60;99.90;;;;;;5014353;28;20136;-49
2023/12/30 02:49:51;;;;;;;3.85;2.40;;;8.60;99.90;;;;;;5041266;28;20072;-45
2023/12/30 02:52:18;;;;;;;4.78;2.25;;;8.60;99.90;;;;;;5012170;28;20392;-47
2023/12/30 02:54:45;;;;;;;5.88;2.80;;;8.60;99.90;;;;;;5012077;28;20045;-49
2023/12/30 02:57:12;;;;;;;5.85;2.22;;;8.50;99.90;;;;;;5009056;28;20042;-49
2023/12/30 02:59:39;;;;;;;4.45;2.15;;;8.50;99.90;;;;;;5010951;28;20052;-48
2023/12/30 03:02:06;;;;;;;4.15;2.47;;;8.50;99.90;;;;;;5007552;28;20125;-44
2023/12/30 03:04:34;;;;;;;4.18;2.17;;;8.50;99.90;;;;;;5009799;28;20046;-47
2023/12/30 03:07:01;;;;;;;5.72;2.38;;;8.50;99.90;;;;;;5006624;28;20513;-45
2023/12/30 03:09:28;;;;;;;4.18;2.53;;;8.50;99.90;;;;;;5009740;28;20042;-45
2023/12/30 03:11:55;;;;;;;7.10;2.75;;;8.50;99.90;;;;;;5007551;28;20604;-48
2023/12/30 03:14:22;;;;;;;5.22;2.40;;;8.50;99.90;;;;;;5008021;28;20052;-45
2023/12/30 03:16:49;;;;;;;4.82;2.30;;;8.50;99.90;;;;;;5010959;28;20047;-48
2023/12/30 03:19:16;;;;;;;5.35;2.17;;;8.40;99.90;;;;;;5009689;28;20112;-48
2023/12/30 03:21:44;;;;;;;6.15;2.28;;;8.50;99.90;;;;;;5010454;28;20125;-54
2023/12/30 03:24:12;;;;;;;4.53;2.40;;;8.40;99.90;;;;;;5008030;28;20038;-51
2023/12/30 03:26:39;;;;;;;8.27;2.90;;;8.40;99.90;;;;;;5013502;28;20049;-52
2023/12/30 03:29:06;;;;;;;5.05;2.30;;;8.30;99.90;;;;;;5011263;28;20034;-50
2023/12/30 03:31:33;;;;;;;4.50;2.20;;;8.30;99.90;;;;;;5013668;28;20164;-48
2023/12/30 03:34:00;;;;;;;4.47;2.58;;;8.20;99.90;;;;;;5012844;28;20069;-48
2023/12/30 03:36:27;;;;;;;10.57;2.83;;;8.00;99.90;;;;;;5013744;28;20159;-50
2023/12/30 03:38:54;;;;;;;4.03;2.10;;;8.00;99.90;;;;;;5014921;28;20045;-47
2023/12/30 03:41:21;;;;;;;4.40;2.25;;;7.90;99.90;;;;;;5011363;28;20046;-45
2023/12/30 03:43:49;;;;;;;5.38;2.50;;;7.90;99.90;;;;;;5009258;28;20052;-50
2023/12/30 03:46:17;;;;;;;6.82;2.47;;;7.80;99.90;;;;;;5012741;28;20045;-49
2023/12/30 03:48:44;;;;;;;4.85;2.90;;;7.80;99.90;;;;;;5013016;28;20105;-46
2023/12/30 03:51:11;;;;;;;4.80;2.47;;;7.70;99.90;;;;;;5013472;28;20108;-47
2023/12/30 03:53:38;;;;;;;5.25;2.50;;;7.60;99.90;;;;;;5012935;28;20053;-46
2023/12/30 03:56:05;;;;;;;7.20;2.70;;;7.60;99.90;;;;;;5013306;28;20048;-50
2023/12/30 03:58:32;;;;;;;3.95;2.38;;;7.50;99.90;;;;;;5011013;28;20487;-50
2023/12/30 04:00:59;;;;;;;4.75;2.50;;;7.50;99.90;;;;;;5011463;28;20049;-49
2023/12/30 04:03:26;;;;;;;5.57;2.88;;;7.40;99.90;;;;;;5010952;28;20120;-47
2023/12/30 04:05:53;;;;;;;4.65;2.65;;;7.40;99.90;;;;;;5010792;28;20111;-51
2023/12/30 04:08:20;;;;;;;4.70;2.78;;;7.40;99.90;;;;;;5012378;28;20470;-46
2023/12/30 04:10:47;;;;;;;7.35;2.58;;;7.40;99.90;;;;;;5015906;28;20058;-50
2023/12/30 04:13:14;;;;;;;4.50;2.40;;;7.40;99.90;;;;;;5008540;28;20046;-48
2023/12/30 04:15:41;;;;;;;4.53;2.50;;;7.40;99.90;;;;;;5011735;28;20045;-44
2023/12/30 04:18:08;;;;;;;8.55;2.80;;;7.50;99.90;;;;;;5010471;28;20392;-47
2023/12/30 04:20:35;;;;;;;10.05;2.78;;;7.50;99.90;;;;;;5009994;28;20069;-50
2023/12/30 04:23:02;;;;;;;3.95;2.42;;;7.50;99.90;;;;;;5012063;28;20136;-49
2023/12/30 04:25:29;;;;;;;5.45;2.90;;;7.60;99.90;;;;;;5011734;28;20139;-47
2023/12/30 04:27:56;;;;;;;5.55;2.70;;;7.60;99.90;;;;;;5010169;28;20422;-48
2023/12/30 04:30:24;;;;;;;3.47;2.10;;;7.70;99.90;;;;;;5012485;28;20443;-50
2023/12/30 04:32:51;;;;;;;5.85;2.47;;;7.70;99.90;;;;;;5014252;28;20782;-49
2023/12/30 04:35:18;;;;;;;5.05;2.50;;;7.80;99.90;;;;;;5010823;28;20034;-53
2023/12/30 04:37:45;;;;;;;3.95;2.42;;;7.80;99.90;;;;;;5007010;28;20061;-45
2023/12/30 04:40:12;;;;;;;4.70;2.40;;;7.90;99.90;;;;;;5011613;28;20038;-49
2023/12/30 04:42:40;;;;;;;3.72;1.90;;;7.90;99.90;;;;;;5011751;28;20369;-51
2023/12/30 04:45:12;;;;;;;4.13;2.40;;;7.90;99.90;;;;;;5010626;28;20066;-49
2023/12/30 04:47:40;;;;;;;4.38;2.42;;;7.90;99.90;;;;;;5011701;28;20129;-46
2023/12/30 04:50:08;;;;;;;7.28;2.22;;;7.90;99.90;;;;;;5009967;28;20106;-48
2023/12/30 04:52:35;;;;;;;5.43;2.95;;;7.90;99.90;;;;;;5009835;28;20057;-47
2023/12/30 04:55:03;;;;;;;4.40;2.55;;;8.00;99.90;;;;;;5011551;28;20068;-51
2023/12/30 04:57:30;;;;;;;4.38;2.25;;;8.00;99.90;;;;;;5006386;28;20509;-47
2023/12/30 04:59:57;;;;;;;5.30;2.53;;;8.00;99.90;;;;;;5013243;28;20045;-47
2023/12/30 05:02:24;;;;;;;6.00;2.80;;;7.90;99.90;;;;;;5010721;28;20046;-49
2023/12/30 05:04:51;;;;;;;3.72;2.40;;;7.90;99.90;;;;;;5012040;28;20143;-50
2023/12/30 05:07:18;;;;;;;6.30;2.35;;;7.80;99.90;;;;;;5010051;28;20533;-52
2023/12/30 05:09:45;;;;;;;4.43;2.42;;;7.70;99.90;;;;;;5014105;28;20042;-45
2023/12/30 05:12:13;;;;;;;4.43;2.30;;;7.70;99.90;;;;;;5011532;28;20034;-53
2023/12/30 05:14:40;;;;;;;5.07;2.88;;;7.70;99.90;;;;;;5012559;28;20434;-50
2023/12/30 05:17:07;;;;;;;4.40;2.40;;;7.70;99.90;;;;;;5010096;28;20046;-50
2023/12/30 05:19:34;;;;;;;4.78;2.22;;;7.60;99.90;;;;;;5009229;28;20470;-48
2023/12/30 05:22:01;;;;;;;5.32;2.60;;;7.60;99.90;;;;;;5011997;28;20040;-52
2023/12/30 05:24:28;;;;;;;3.95;2.40;;;7.60;99.90;;;;;;5007234;28;20749;-48
2023/12/30 05:26:55;;;;;;;4.40;2.33;;;7.60;99.90;;;;;;5010147;28;20069;-50
2023/12/30 05:29:22;;;;;;;5.70;2.20;;;7.70;99.90;;;;;;5010853;28;20339;-47
2023/12/30 05:31:49;;;;;;;4.25;2.05;;;7.70;99.90;;;;;;5012218;28;20123;-47
2023/12/30 05:34:16;;;;;;;3.90;2.13;;;7.70;99.90;;;;;;5011168;28;20048;-47
2023/12/30 05:36:44;;;;;;;4.05;2.10;;;7.70;99.90;;;;;;5011995;28;20046;-48
2023/12/30 05:39:13;;;;;;;4.60;2.05;;;7.70;99.90;;;;;;5011287;28;20128;-48
2023/12/30 05:41:40;;;;;;;3.53;1.80;;;7.80;99.90;;;;;;5008091;28;20040;-47
2023/12/30 05:44:07;;;;;;;8.43;1.75;;;7.80;99.90;;;;;;5011436;28;20124;-44
2023/12/30 05:46:34;;;;;;;4.90;1.90;;;7.90;99.90;;;;;;5011903;28;20042;-51
2023/12/30 05:49:02;;;;;;;4.93;1.80;;;7.90;99.90;;;;;;5009018;28;20057;-46
2023/12/30 05:51:29;;;;;;;5.35;2.28;;;8.00;99.90;;;;;;5010275;28;20129;-52
2023/12/30 05:53:56;;;;;;;2.83;1.70;;;8.00;99.90;;;;;;5011915;28;20048;-50
2023/12/30 05:56:24;;;;;;;3.55;2.03;;;8.00;99.90;;;;;;5011160;28;20060;-46
2023/12/30 05:58:55;;;;;;;4.55;1.85;;;8.10;99.90;;;;;;5020702;28;20478;-50
2023/12/30 06:01:21;;;;;;;4.93;1.63;;;8.10;99.90;;;;;;5013331;28;20312;-47
2023/12/30 06:03:49;;;;;;;4.10;2.08;;;8.10;99.90;;;;;;5018256;28;20126;-47
2023/12/30 06:06:16;;;;;;;3.78;1.88;;;8.10;99.90;;;;;;5010685;28;20041;-47
2023/12/30 06:08:43;;;;;;;3.78;2.05;;;8.10;99.90;;;;;;5013545;28;20042;-48
2023/12/30 06:11:11;;;;;;;4.75;2.22;;;8.10;99.90;;;;;;5011788;28;20045;-49
2023/12/30 06:13:41;;;;;;;4.68;2.00;;;8.10;99.90;;;;;;5010049;28;20420;-48
2023/12/30 06:16:10;;;;;;;3.92;1.85;;;8.10;99.90;;;;;;5010255;28;20042;-48
2023/12/30 06:18:37;;;;;;;2.78;1.80;;;8.20;99.90;;;;;;5012360;28;20033;-45
2023/12/30 06:21:05;;;;;;;3.75;1.80;;;8.20;99.90;;;;;;5012868;28;20676;-49
2023/12/30 06:23:32;;;;;;;6.35;1.92;;;8.20;99.90;;;;;;5010525;28;20423;-45
2023/12/30 06:26:01;;;;;;;5.68;2.35;;;8.20;99.90;;;;;;5011874;28;20068;-50
2023/12/30 06:28:28;;;;;;;4.68;2.20;;;8.20;99.90;;;;;;5010301;28;20546;-46
2023/12/30 06:30:55;;;;;;;4.95;1.77;;;8.30;99.90;;;;;;5012992;28;20045;-52
2023/12/30 06:33:24;;;;;;;3.83;1.73;;;8.20;99.90;;;;;;5008647;28;20042;-47
2023/12/30 06:35:52;;;;;;;6.30;1.98;;;8.20;99.90;;;;;;5012452;28;20140;-51
2023/12/30 06:38:19;;;;;;;6.35;1.95;;;8.30;99.90;;;;;;5010493;28;20054;-45
2023/12/30 06:40:46;;;;;;;6.07;2.10;;;8.30;99.90;;;;;;5010774;28;20054;-46
2023/12/30 06:43:13;;;;;;;4.18;1.95;;;8.20;99.90;;;;;;5008173;28;20121;-47
2023/12/30 06:45:40;;;;;;;3.58;1.58;;;8.20;99.90;;;;;;5013313;28;20037;-49
2023/12/30 06:48:07;;;;;;;3.78;1.90;;;8.20;99.90;;;;;;5007050;28;20145;-51
2023/12/30 06:50:35;;;;;;;3.63;1.77;;;8.30;99.90;;;;;;5012780;28;20050;-45
2023/12/30 06:53:02;;;;;;;4.63;2.00;;;8.30;99.90;;;;;;5008646;28;20091;-47
2023/12/30 06:55:29;;;;;;;4.05;1.65;;;8.30;99.90;;;;;;5010438;28;20037;-46
2023/12/30 06:58:08;;;;;;;4.90;1.83;;;8.30;99.90;;;;;;5012661;28;20042;-45
2023/12/30 07:00:35;;;;;;;3.17;1.42;;;8.30;99.90;;;;;;5008815;28;20053;-49
2023/12/30 07:03:03;;;;;;;4.82;1.95;;;8.30;99.90;;;;;;5013023;28;20047;-47
2023/12/30 07:05:35;;;;;;;5.88;2.28;;;8.30;99.90;;;;;;5011871;28;20037;-47
2023/12/30 07:08:03;;;;;;;5.38;1.90;;;8.40;99.90;;;;;;5015065;28;20124;-45
2023/12/30 07:10:30;;;;;;;4.35;2.00;;;8.40;99.90;;;;;;5012361;28;20030;-49
2023/12/30 07:12:57;;;;;;;4.43;1.75;;;8.40;99.90;;;;;;5015565;28;20140;-45
2023/12/30 07:15:25;;;;;;;4.68;1.75;;;8.30;99.90;;;;;;5016734;28;20061;-47
2023/12/30 07:17:52;;;;;;;2.88;1.45;;;8.30;99.90;;;;;;5011348;28;20574;-49
2023/12/30 07:20:21;;;;;;;4.95;2.10;;;8.30;99.90;;;;;;5010095;28;20483;-47
2023/12/30 07:22:48;;;;;;;3.03;1.80;;;8.20;99.90;;;;;;5011741;28;20449;-48
2023/12/30 07:25:14;;;;;;;4.82;1.80;;;8.30;99.90;;;;;;5004472;28;20125;-47
2023/12/30 07:27:41;;;;;;;3.90;1.92;;;8.30;99.90;;;;;;5013499;28;20046;-46
2023/12/30 07:30:09;;;;;;;5.75;1.83;;;8.30;99.90;;;;;;5014356;28;20053;-49
2023/12/30 07:32:37;;;;;;;5.85;1.90;;;8.30;99.90;;;;;;5014855;28;20069;-43
2023/12/30 07:35:06;;;;;;;4.72;1.85;;;8.30;99.90;;;;;;5020470;28;20136;-45
2023/12/30 07:37:34;;;;;;;5.53;2.30;;;8.30;99.90;;;;;;5016890;28;20418;-50
2023/12/30 07:40:06;;;;;;;5.10;1.70;;;8.30;99.90;;;;;;5008134;28;20062;-49
2023/12/30 07:42:33;;;;;;;4.90;1.98;;;8.30;99.90;;;;;;5008571;28;20219;-50
2023/12/30 07:45:00;;;;;;;5.15;2.30;;;8.30;99.90;;;;;;5016299;28;20500;-46
2023/12/30 07:47:27;;;;;;;5.65;1.88;;;8.30;99.90;;;;;;5016880;28;20037;-50
2023/12/30 07:49:54;;;;;;;6.57;1.83;;;8.30;99.90;;;;;;5015912;28;20047;-50
2023/12/30 07:52:22;;;;;;;5.10;1.92;;;8.40;99.90;;;;;;5017106;28;20044;-45
2023/12/30 07:54:49;;;;;;;4.65;2.22;;;8.50;99.90;;;;;;5015534;28;20060;-46
2023/12/30 07:57:16;;;;;;;5.45;2.13;;;8.50;99.90;;;;;;5015265;28;20046;-44
2023/12/30 07:59:43;;;;;;;6.15;1.90;;;8.50;99.90;;;;;;5011276;28;20049;-51
2023/12/30 08:02:10;;;;;;;3.45;1.90;;;8.50;99.90;;;;;;5011907;28;20120;-46
2023/12/30 08:04:40;;;;;;;4.85;1.95;;;8.50;99.90;;;;;;5011490;28;20427;-47
2023/12/30 08:07:07;;;;;;;5.72;2.00;;;8.60;99.90;;;;;;5012696;28;20030;-45
2023/12/30 08:09:36;;;;;;;7.15;2.13;;;8.70;99.90;;;;;;5013736;28;20410;-52
2023/12/30 08:12:04;;;;;;;6.70;2.13;;;8.70;99.90;;;;;;5011118;28;20129;-53
2023/12/30 08:14:31;;;;;;;5.20;1.77;;;8.70;99.90;;;;;;5013884;28;20574;-48
2023/12/30 08:16:58;;;;;;;6.45;2.20;;;8.70;99.90;;;;;;5014648;28;20050;-52
2023/12/30 08:19:26;;;;;;;7.25;2.00;;;8.80;99.90;;;;;;5014311;28;20507;-47
2023/12/30 08:21:53;;;;;;;6.80;1.88;;;8.70;99.90;;;;;;5011987;28;20048;-47
2023/12/30 08:24:20;;;;;;;5.70;2.25;;;8.70;99.90;;;;;;5014008;28;20041;-49
2023/12/30 08:26:47;;;;;;;6.30;2.50;;;8.70;99.90;;;;;;5015037;28;20053;-47
2023/12/30 08:29:15;;;;;;;4.15;2.08;;;8.60;99.90;;;;;;5013610;28;20042;-50
2023/12/30 08:31:45;;;;;;;7.47;2.58;;;8.60;99.90;;;;;;5011625;28;20100;-45
2023/12/30 08:34:16;;;;;;;4.57;2.00;;;8.70;99.90;;;;;;5012534;28;20154;-48
2023/12/30 08:36:44;;;;;;;6.15;2.53;;;8.70;99.90;;;;;;5014971;28;20106;-51
2023/12/30 08:39:11;;;;;;;7.68;2.05;;;8.80;99.90;;;;;;5016812;28;20042;-51
2023/12/30 08:41:39;;;;;;;8.50;2.08;;;8.80;99.90;;;;;;5012967;28;20495;-50
2023/12/30 08:44:07;;;;;;;4.60;2.20;;;8.80;99.90;;;;;;5011036;28;20072;-50
2023/12/30 08:46:34;;;;;;;5.93;2.15;;;8.90;99.90;;;;;;5011965;28;20037;-47
2023/12/30 08:49:03;;;;;;;6.25;2.20;;;8.90;99.90;;;;;;5013148;28;20501;-47
2023/12/30 08:51:33;;;;;;;9.68;2.72;;;8.90;99.90;;;;;;5014198;28;20519;-49
2023/12/30 08:54:00;;;;;;;6.70;2.75;;;9.00;99.90;;;;;;5007557;28;20169;-50
2023/12/30 08:56:33;;;;;;;7.10;2.75;;;9.10;99.90;;;;;;5011779;28;20045;-50
2023/12/30 08:59:01;;;;;;;8.00;2.17;;;9.20;99.90;;;;;;5009574;28;20606;-47
2023/12/30 09:01:28;;;;;;;6.03;2.25;;;9.30;99.90;;;;;;5009653;28;20050;-48
2023/12/30 09:03:56;;;;;;;5.80;2.20;;;9.30;99.90;;;;;;5010340;28;20065;-48
2023/12/30 09:06:23;;;;;;;4.70;1.85;;;9.30;99.90;;;;;;5011522;28;20112;-49
2023/12/30 09:08:50;;;;;;;6.38;2.17;;;9.40;99.90;;;;;;5014383;28;20044;-50
2023/12/30 09:11:21;;;;;;;5.95;1.98;;;9.30;99.90;;;;;;5007886;28;20045;-47
2023/12/30 09:13:51;;;;;;;4.78;1.80;;;9.30;99.90;;;;;;5013136;28;20052;-48
2023/12/30 09:16:19;;;;;;;5.75;1.83;;;9.40;99.90;;;;;;5013359;28;20053;-47
2023/12/30 09:18:46;;;;;;;5.22;2.28;;;9.50;99.90;;;;;;5015318;28;20061;-48
2023/12/30 09:21:13;;;;;;;3.28;1.80;;;9.50;99.90;;;;;;5008377;28;20050;-46
2023/12/30 09:23:41;;;;;;;4.80;1.77;;;9.60;99.90;;;;;;5007143;28;20038;-46
2023/12/30 09:26:08;;;;;;;6.78;2.10;;;9.50;99.90;;;;;;5014505;28;20038;-48
2023/12/30 09:28:35;;;;;;;5.82;1.98;;;9.60;99.90;;;;;;5012022;28;20041;-52
2023/12/30 09:31:02;;;;;;;6.88;2.20;;;9.50;99.90;;;;;;5012477;28;20042;-48
2023/12/30 09:33:30;;;;;;;6.95;2.20;;;9.60;99.90;;;;;;5010311;28;20049;-51
2023/12/30 09:35:57;;;;;;;5.38;2.05;;;9.60;99.90;;;;;;5012941;28;20045;-51
2023/12/30 09:38:25;;;;;;;6.78;2.30;;;9.60;99.90;;;;;;5012121;28;20042;-55
2023/12/30 09:40:53;;;;;;;5.40;1.85;;;9.80;99.90;;;;;;5009177;28;20060;-52
2023/12/30 09:43:23;;;;;;;5.93;1.98;;;9.80;99.90;;;;;;5011733;28;20049;-48
2023/12/30 09:45:52;;;;;;;5.88;2.20;;;9.80;99.90;;;;;;5014330;28;20448;-52
2023/12/30 09:48:20;;;;;;;6.30;2.00;;;10.10;99.90;;;;;;5010892;28;20041;-51
2023/12/30 09:50:51;;;;;;;9.07;2.38;;;10.10;99.90;;;;;;5014343;28;20057;-48
2023/12/30 09:53:22;;;;;;;4.63;2.10;;;10.10;99.90;;;;;;5008245;28;20515;-48
2023/12/30 09:55:50;;;;;;;5.28;1.85;;;10.20;99.90;;;;;;5015304;28;20053;-48
2023/12/30 09:58:18;;;;;;;6.45;2.33;;;10.20;99.90;;;;;;5012747;28;20434;-46
2023/12/30 10:00:45;;;;;;;4.68;1.73;;;10.30;99.90;;;;;;5010357;28;20046;-46
2023/12/30 10:03:14;;;;;;;7.00;2.20;;;10.30;99.90;;;;;;5009062;28;20046;-47
2023/12/30 10:05:41;;;;;;;6.18;2.70;;;10.10;99.90;;;;;;5012488;28;20038;-49
2023/12/30 10:08:09;;;;;;;6.20;1.90;;;10.10;99.90;;;;;;5010203;28;20030;-47
2023/12/30 10:10:46;;;;;;;3.67;1.85;;;10.10;99.90;;;;;;5012504;28;20033;-50
2023/12/30 10:13:22;;;;;;;5.47;1.90;;;10.10;99.90;;;;;;5009251;28;20455;-54
2023/12/30 10:15:49;;;;;;;10.23;2.15;;;10.10;99.90;;;;;;5012050;28;20069;-49
2023/12/30 10:18:17;;;;;;;7.70;2.65;;;10.10;99.90;;;;;;5009568;28;20077;-45
2023/12/30 10:20:45;;;;;;;5.18;2.80;;;10.00;99.90;;;;;;5007648;28;20100;-52
2023/12/30 10:23:13;;;;;;;4.82;1.70;;;10.00;99.90;;;;;;5005221;28;20046;-46
2023/12/30 10:25:41;;;;;;;5.65;1.73;;;10.00;99.90;;;;;;5007343;28;20468;-52
2023/12/30 10:28:08;;;;;;;5.32;1.85;;;9.90;99.90;;;;;;5008047;28;20048;-50
2023/12/30 10:30:36;;;;;;;4.97;1.90;;;10.10;99.90;;;;;;5009126;28;20053;-51
2023/12/30 10:33:09;;;;;;;7.93;2.05;;;10.20;99.90;;;;;;5010489;28;20076;-48
2023/12/30 10:35:39;;;;;;;4.60;1.98;;;10.40;99.90;;;;;;5013531;28;20073;-48
2023/12/30 10:38:10;;;;;;;10.02;2.10;;;10.40;99.90;;;;;;5011867;28;20057;-47
2023/12/30 10:40:38;;;;;;;7.10;2.00;;;10.50;99.90;;;;;;5009517;28;20487;-49
2023/12/30 10:43:06;;;;;;;8.85;1.92;;;10.40;99.90;;;;;;5015231;28;20323;-48
2023/12/30 10:45:34;;;;;;;3.50;1.90;;;10.40;99.90;;;;;;5015066;28;20460;-51
2023/12/30 10:48:03;;;;;;;6.88;1.80;;;10.50;99.90;;;;;;5009549;28;20057;-50
2023/12/30 10:50:32;;;;;;;6.20;1.50;;;10.50;99.90;;;;;;5013810;28;20588;-49
2023/12/30 10:53:28;;;;;;;6.05;2.00;;;10.70;99.90;;;;;;5015075;28;20065;-48
2023/12/30 10:56:01;;;;;;;4.35;2.13;;;10.80;99.90;;;;;;5017988;28;20186;-53
2023/12/30 10:58:35;;;;;;;8.82;1.88;;;10.90;99.90;;;;;;5024667;28;20511;-51
2023/12/30 11:01:05;;;;;;;3.67;1.67;;;11.00;99.90;;;;;;5028047;28;20618;-46
2023/12/30 11:03:34;;;;;;;6.35;1.80;;;11.00;99.90;;;;;;5018473;28;20129;-53
2023/12/30 11:06:26;;;;;;;6.75;2.25;;;10.80;99.90;;;;;;5016146;28;20046;-47
2023/12/30 11:08:58;;;;;;;6.57;1.98;;;10.70;99.90;;;;;;5010466;28;20055;-46
2023/12/30 11:11:25;;;;;;;4.57;2.00;;;10.60;99.90;;;;;;5016382;28;20092;-45
2023/12/30 11:13:56;;;;;;;8.27;1.88;;;10.60;99.90;;;;;;5007505;28;20519;-45
2023/12/30 11:16:24;;;;;;;4.13;1.60;;;10.50;99.90;;;;;;5015389;28;20045;-43
2023/12/30 11:18:53;;;;;;;5.97;1.90;;;10.50;99.90;;;;;;5015053;28;20522;-48
2023/12/30 11:21:42;;;;;;;4.10;1.40;;;10.50;99.90;;;;;;5014483;28;20372;-48
2023/12/30 11:24:11;;;;;;;6.38;1.52;;;10.40;99.90;;;;;;5014814;28;20144;-46
2023/12/30 11:26:42;;;;;;;4.57;1.52;;;10.50;99.90;;;;;;5014792;28;20069;-51
2023/12/30 11:29:15;;;;;;;4.80;1.70;;;10.50;99.90;;;;;;5014892;28;20506;-57
2023/12/30 11:31:47;;;;;;;7.00;1.80;;;10.60;99.90;;;;;;5015817;28;20044;-52
2023/12/30 11:34:15;;;;;;;4.30;1.60;;;10.70;99.90;;;;;;5012179;28;20042;-52
2023/12/30 11:36:45;;;;;;;5.90;1.92;;;10.80;99.90;;;;;;5011435;28;20065;-50
2023/12/30 11:39:32;;;;;;;3.45;1.60;;;10.70;99.90;;;;;;5010298;28;20049;-47
2023/12/30 11:42:00;;;;;;;4.90;1.60;;;10.70;99.90;;;;;;5012391;28;20506;-50
2023/12/30 11:44:28;;;;;;;4.72;1.95;;;10.70;99.90;;;;;;5008861;28;20072;-46
2023/12/30 11:46:56;;;;;;;6.05;1.92;;;10.80;99.90;;;;;;5012546;28;20053;-45
2023/12/30 11:49:24;;;;;;;3.70;1.65;;;10.70;99.90;;;;;;5011800;28;20046;-46
2023/12/30 11:52:01;;;;;;;5.90;1.80;;;10.70;99.90;;;;;;5013653;28;20045;-45
2023/12/30 11:54:28;;;;;;;4.45;1.73;;;10.60;99.90;;;;;;5015280;28;20475;-47
2023/12/30 11:56:55;;;;;;;4.65;1.70;;;10.60;99.90;;;;;;5015792;28;20046;-46
2023/12/30 11:59:22;;;;;;;3.80;1.85;;;10.50;99.90;;;;;;5016356;28;20156;-47
2023/12/30 12:01:49;;;;;;;4.78;1.73;;;10.50;99.90;;;;;;5014207;28;20124;-47
2023/12/30 12:04:16;;;;;;;5.07;1.70;;;10.60;99.90;;;;;;5017494;28;20064;-49
2023/12/30 12:06:43;;;;;;;5.07;2.03;;;10.60;99.90;;;;;;5013255;28;20120;-50
2023/12/30 12:09:10;;;;;;;5.75;1.80;;;10.60;99.90;;;;;;5012140;28;20030;-48
2023/12/30 12:11:39;;;;;;;6.45;1.70;;;10.90;99.90;;;;;;5012685;28;20048;-46
2023/12/30 12:14:06;;;;;;;5.95;2.20;;;11.30;99.90;;;;;;5014168;28;20046;-47
2023/12/30 12:16:33;;;;;;;4.65;1.70;;;11.70;99.90;;;;;;5009909;28;20042;-49
2023/12/30 12:19:04;;;;;;;6.15;1.90;;;11.60;99.90;;;;;;5016720;28;20153;-48
2023/12/30 12:21:31;;;;;;;5.10;2.25;;;11.60;99.90;;;;;;5010660;28;20056;-47
2023/12/30 12:23:58;;;;;;;4.22;1.60;;;11.70;99.90;;;;;;5014165;28;20060;-47
2023/12/30 12:26:25;;;;;;;8.43;2.20;;;11.80;99.90;;;;;;5013649;28;20420;-47
2023/12/30 12:28:53;;;;;;;7.53;2.08;;;12.00;99.90;;;;;;5011645;28;20076;-49
2023/12/30 12:31:20;;;;;;;5.05;1.77;;;12.20;99.90;;;;;;5013801;28;20045;-51
2023/12/30 12:33:48;;;;;;;8.43;2.00;;;12.30;99.90;;;;;;5013556;28;20053;-44
2023/12/30 12:36:17;;;;;;;3.72;1.88;;;12.00;99.90;;;;;;5012058;28;20045;-49
2023/12/30 12:38:45;;;;;;;7.07;2.10;;;11.90;99.90;;;;;;5009600;28;20445;-46
2023/12/30 12:41:12;;;;;;;6.07;2.05;;;12.00;99.90;;;;;;5006185;28;20820;-47
2023/12/30 12:43:39;;;;;;;6.25;2.10;;;12.20;99.90;;;;;;5015981;28;20038;-46
2023/12/30 12:46:07;;;;;;;4.45;1.77;;;11.90;99.90;;;;;;5010961;28;20085;-45
2023/12/30 12:48:35;;;;;;;4.93;2.10;;;11.90;99.90;;;;;;5012091;28;20037;-46
2023/12/30 12:51:03;;;;;;;5.50;2.20;;;11.50;99.90;;;;;;5011847;28;20549;-47
2023/12/30 12:53:30;;;;;;;6.82;2.30;;;11.60;99.90;;;;;;5010798;28;20170;-45
2023/12/30 12:55:56;;;;;;;6.78;2.13;;;11.60;99.90;;;;;;5013914;28;20053;-46
2023/12/30 12:58:24;;;;;;;5.13;1.85;;;11.70;99.90;;;;;;5011184;28;20136;-47
2023/12/30 13:00:51;;;;;;;4.75;2.00;;;11.70;99.90;;;;;;5016014;28;20052;-43